Mt. Lincoln Summit Weather observations

Data are for 10 minute period ending at time listed.
 Day   Time   Solar   Ave.   Ave.  Ave.  Vector    Max.   Stn.  
  of    of     Rad.   Air    Rel.  Wind   Wind     Wind   Baro.  
Year   Day            Temp.  Hum.  Speed  Dir.     Gust   Pres. 
2014   (PST)   W/m2    F      %     mph   deg.      mph    mb    
-----------------------------------------------------------------
 354   13:30  999.0    29   80.7    43    247.3    56.0   608.90
 354   13:40  999.0    29   80.7    43    243.9    56.6   610.90
 354   13:50  999.0    29   80.7    39    267.0    60.7   610.20
 354   14:00  999.0    29   80.7    36    304.4    49.1   608.30
 354   14:10  999.0    29   80.7    36    312.9    44.0   610.30
 354   14:20  999.0    29   80.7    35    312.9    43.7   613.50
 354   14:30  999.0    29   80.7    35    312.9    43.1   612.20
 354   14:40  999.0    29   80.8    33    313.0    40.1   608.90
 354   14:50  999.0    29   80.7    30    313.0    38.1   606.60
 354   15:00  999.0    28   80.7    29    313.0    34.2   605.40
 354   15:10  999.0    28   80.7    28    313.0    36.2   606.20
 354   15:20  999.0    28   80.7    27    313.0    35.1   607.40
 354   15:30  999.0    28   80.7    26    313.0    32.2   605.50
 354   15:40  999.0    28   80.7    25    312.9    31.4   606.70
 354   15:50  999.0    28   80.7    26    312.9    34.4   606.40
 354   16:00  999.0    28   80.8    26    312.9    32.2   605.80
 354   16:10  999.0    28   80.7    23    312.9    29.2   605.90
 354   16:20  999.0    28   80.7    23    312.9    29.7   606.80
 354   16:30  999.0    28   80.7    24    313.0    29.1   603.90
 354   16:40  999.0    28   80.7    22    313.0    28.1   602.50
 354   16:50  999.0    28   80.7    22    313.0    28.5   600.80
 354   17:00  999.0    28   80.7    21    313.0    27.3   604.80
 354   17:10  999.0    28   80.7    20    313.0    25.5   604.90
 354   17:20  999.0    28   80.7    20    313.0    24.7   601.40
 354   17:30  999.0    28   80.7    20    313.0    26.0   602.40
 354   17:40  999.0    28   80.7    20    313.0    25.7   603.10
 354   17:50  999.0    28   80.7    19    313.0    23.0   604.60
 354   18:00  999.0    28   80.7    19    313.0    22.7   601.80
 354   18:10  999.0    28   80.8    19    313.0    22.6   602.70
 354   18:20  999.0    29   80.8    19    313.0    23.6   604.20
 354   18:30  999.0    29   80.7    18    313.0    23.3   606.70
 354   18:40  999.0    29   80.7    18    313.0    23.3   608.10
 354   18:50  999.0    29   80.7    17    313.0    22.0   602.70
 354   19:00  999.0    29   80.7    15    313.0    21.8   602.20
 354   19:10  999.0    29   80.7    13    313.0    17.1   602.30
 354   19:20  999.0    29   80.7    14    313.0    18.9   603.30
 354   19:30  999.0    29   80.8    13    313.0    17.2   601.90
 354   19:40  999.0    30   80.8    13    313.0    18.3   601.20
 354   19:50  999.0    30   80.8    17    313.0    23.4   602.00
 354   20:00  999.0    30   80.8    19    313.0    24.0   604.50
 354   20:10  999.0    30   80.8    15    313.0    19.2   603.20
 354   20:20  999.0    30   80.8    14    313.0    17.1   598.60
 354   20:30  999.0    30   80.9     9    313.0    15.5   599.30
 354   20:40  999.0    30   80.9     1    313.0     6.6   593.90
 354   20:50  999.0    30   80.9     0      0.0     0.0   594.50
 354   21:00  999.0    30   80.9     0      0.0     0.0   595.90
 354   21:10  999.0    31   80.9     0      0.0     0.0   595.90
 354   21:20  999.0    31   80.9     0      0.0     0.0   595.80
 354   21:30  999.0    31   80.9     0    313.0     0.1   599.50
 354   21:40  999.0    31   81.0     0      0.0     0.0   598.00
 354   21:50  999.0    31   81.0     0      0.0     0.0   594.50
 354   22:00  999.0    31   81.0     0      0.0     0.0   597.20
 354   22:10  999.0    31   81.0     0      0.0     0.0   597.80
 354   22:20  999.0    31   81.0     0      0.0     0.0   598.60
 354   22:30  999.0    31   81.0     0      0.0     0.0   598.40
 354   22:40  999.0    31   81.1     0      0.0     0.0   596.90
 354   22:50  999.0    32   81.1     0      0.0     0.0   598.80
 354   23:00  999.0    32   81.0     0      0.0     0.0   595.00
 354   23:10  999.0    32   81.0     0      0.0     0.0   597.40
 354   23:20  999.0    32   81.0     0      0.0     0.0   597.00
 354   23:30  999.0    32   81.0     0      0.0     0.0   596.70
 354   23:40  999.0    32   81.0     0      0.0     0.0   598.50
 354   23:50  999.0    32   80.9     0      0.0     0.0   599.50
 355    0:00  999.0    32   80.9     0      0.0     0.0   600.60
 355    0:10  999.0    32   81.0     0      0.0     0.0   598.00
 355    0:20  999.0    32   81.0     0      0.0     0.0   598.60
 355    0:30  999.0    32   81.0     0      0.0     0.0   600.50
 355    0:40  999.0    32   81.0     0      0.0     0.0   600.80
 355    0:50  999.0    32   81.0     0      0.0     0.0   599.10
 355    1:00  999.0    32   81.1     0      0.0     0.0   597.60
 355    1:10  999.0    32   81.1     0      0.0     0.0   598.90
 355    1:20  999.0    32   81.1     0      0.0     0.0   601.30
 355    1:30  999.0    32   81.1     0      0.0     0.0   599.20
 355    1:40  999.0    32   81.1     0      0.0     0.0   599.80
 355    1:50  999.0    31   81.1     0      0.0     0.0   599.70
 355    2:00  999.0    31   81.3     0      0.0     0.0   598.20
 355    2:10  999.0    31   81.3     0      0.0     0.0   597.90
 355    2:20  999.0    31   81.4     0      0.0     0.0   597.40
 355    2:30  999.0    31   81.4     0      0.0     0.0   597.60
 355    2:40  999.0    31   81.4     0      0.0     0.0   596.60
 355    2:50  999.0    31   81.4     0      0.0     0.0   594.90
 355    3:00  999.0    32   81.4     0      0.0     0.0   598.90
 355    3:10  999.0    32   81.4     0      0.0     0.0   598.20
 355    3:20  999.0    32   81.4     0      0.0     0.0   596.90
 355    3:30  999.0    32   81.4     0      0.0     0.0   595.30
 355    3:40  999.0    32   81.5     0      0.0     0.0   598.70
 355    3:50  999.0    32   81.5     0      0.0     0.0   598.60
 355    4:00  999.0    32   81.6     0      0.0     0.0   599.00
 355    4:10  999.0    32   81.6     0      0.0     0.0   597.80
 355    4:20  999.0    32   81.6     0      0.0     0.0   600.90
 355    4:30  999.0    32   81.7     0      0.0     0.0   599.60
 355    4:40  999.0    32   81.7     0      0.0     0.0   598.60
 355    4:50  999.0    32   81.7     0      0.0     0.0   599.10
 355    5:00  999.0    32   81.7     0      0.0     0.0   598.60
 355    5:10  999.0    32   81.7     0      0.0     0.0   598.80
 355    5:20  999.0    32   81.7     0      0.0     0.0   599.20
 355    5:30  999.0    32   81.7     0      0.0     0.0   599.10
 355    5:40  999.0    32   81.8     0      0.0     0.0   598.60
 355    5:50  999.0    32   81.8     0      0.0     0.0   598.30
 355    6:00  999.0    32   81.8     0      0.0     0.0   598.70
 355    6:10  999.0    32   81.8     0      0.0     0.0   597.20
 355    6:20  999.0    32   81.8     0      0.0     0.0   596.80
 355    6:30  999.0    32   81.8     0      0.0     0.0   599.10
 355    6:40  999.0    32   81.8     0      0.0     0.0   599.00
 355    6:50  999.0    32   81.8     0    312.9     0.1   601.60
 355    7:00  999.0    32   81.7     0    220.5     0.1   599.90
 355    7:10  999.0    32   81.8    -0    125.8     0.0   598.60
 355    7:20  999.0    32   81.7     0      0.0     0.0   597.10
 355    7:30  999.0    32   81.7     0      0.0     0.0   599.20
 355    7:40  999.0    32   81.8     0      0.0     0.0   602.70
 355    7:50  999.0    32   81.7     0     76.6     0.0   598.30
 355    8:00  999.0    32   81.7     0    124.9     0.0   598.00
 355    8:10  999.0    32   81.7    -0     94.0     0.1   599.60
 355    8:20  999.0    33   81.7    -0    112.3     0.0   598.20
 355    8:30  999.0    33   81.7     0    278.3     0.1   598.40
 355    8:40  999.0    33   81.7    15    284.9    23.0   605.90
 355    8:50  999.0    33   81.7    15    279.5    23.7   601.50
 355    9:00  999.0    33   81.7    24    263.9    40.1   604.40
 355    9:10  999.0    33   81.6    26    267.7    42.2   607.70
 355    9:20  999.0    33   81.7    28    295.7    41.8   607.60
 355    9:30  999.0    33   81.7    30    285.3    43.5   607.20
 355    9:40  999.0    33   81.8    31    285.5    42.6   603.90
 355    9:50  999.0    34   81.7    29    289.3    38.7   602.10
 355   10:00  999.0    34   81.7    31    291.5    41.8   601.80
 355   10:10  999.0    34   81.6    32    301.3    49.3   603.30
 355   10:20  999.0    33   81.6    29    290.6    39.5   602.20
 355   10:30  999.0    34   81.7    30    292.2    43.5   599.90
 355   10:40  999.0    34   81.7    29    290.5    40.1   600.10
 355   10:50  999.0    34   81.7    28    289.1    39.3   602.50
 355   11:00  999.0    34   81.7    28    298.2    42.3   605.60
 355   11:10  999.0    34   81.7    30    295.2    40.9   603.20
 355   11:20  999.0    34   81.8    31    293.0    42.7   603.80
 355   11:30  999.0    35   81.7    30    295.5    45.8   605.20
 355   11:40  999.0    35   81.7    32    295.9    46.8   602.70
 355   11:50  999.0    35   81.8    33    294.7    45.1   603.20
 355   12:00  999.0    35   81.7    33    292.9    47.0   605.30
 355   12:10  999.0    35   81.8    34    292.6    49.2   604.90
 355   12:20  999.0    35   81.8    34    292.5    48.9   602.90
 355   12:30  999.0    35   81.8    31    298.7    53.0   602.10
 355   12:40  999.0    35   81.8    30    299.5    42.8   603.40
 355   12:50  999.0    35   81.8    29    295.3    45.1   600.50
 355   13:00  999.0    35   81.9    28    302.5    40.0   600.60
 355   13:10  999.0    35   81.9    31    298.9    52.3   602.30
 355   13:20  999.0    35   81.9    35    301.1    53.4   601.60

Return to Mt. Lincoln graphs page.


Western Regional Climate Center,wrcc@dri.edu